sensor_id;sensor_type;location;lat;lon;timestamp;P1;durP1;ratioP1;P2;durP2;ratioP2
70420;SDS011;57848;51.938;15.520;2022-11-15T00:01:00;70.88;;;30.48;;
70420;SDS011;57848;51.938;15.520;2022-11-15T00:03:44;65.85;;;30.15;;
70420;SDS011;57848;51.938;15.520;2022-11-15T00:06:29;68.20;;;30.13;;
70420;SDS011;57848;51.938;15.520;2022-11-15T00:09:13;59.92;;;30.05;;
70420;SDS011;57848;51.938;15.520;2022-11-15T00:11:57;68.55;;;30.13;;
70420;SDS011;57848;51.938;15.520;2022-11-15T00:14:41;66.55;;;31.17;;
70420;SDS011;57848;51.938;15.520;2022-11-15T00:17:25;63.80;;;29.92;;
70420;SDS011;57848;51.938;15.520;2022-11-15T00:20:09;61.27;;;28.07;;
70420;SDS011;57848;51.938;15.520;2022-11-15T00:22:53;65.00;;;27.42;;
70420;SDS011;57848;51.938;15.520;2022-11-15T00:25:37;60.38;;;29.08;;
70420;SDS011;57848;51.938;15.520;2022-11-15T00:28:21;67.03;;;25.42;;
70420;SDS011;57848;51.938;15.520;2022-11-15T00:31:13;61.45;;;27.67;;
70420;SDS011;57848;51.938;15.520;2022-11-15T00:33:58;56.47;;;25.87;;
70420;SDS011;57848;51.938;15.520;2022-11-15T00:36:42;53.05;;;26.58;;
70420;SDS011;57848;51.938;15.520;2022-11-15T00:39:26;57.95;;;27.08;;
70420;SDS011;57848;51.938;15.520;2022-11-15T00:42:10;68.35;;;28.65;;
70420;SDS011;57848;51.938;15.520;2022-11-15T00:44:54;55.55;;;26.13;;
70420;SDS011;57848;51.938;15.520;2022-11-15T00:47:38;51.93;;;25.80;;
70420;SDS011;57848;51.938;15.520;2022-11-15T00:50:22;51.58;;;24.70;;
70420;SDS011;57848;51.938;15.520;2022-11-15T00:56:52;52.47;;;25.13;;
70420;SDS011;57848;51.938;15.520;2022-11-15T00:59:36;52.33;;;25.08;;
70420;SDS011;57848;51.938;15.520;2022-11-15T01:02:20;54.20;;;24.80;;
70420;SDS011;57848;51.938;15.520;2022-11-15T01:05:05;48.88;;;23.60;;
70420;SDS011;57848;51.938;15.520;2022-11-15T01:07:51;49.45;;;25.20;;
70420;SDS011;57848;51.938;15.520;2022-11-15T01:10:39;52.70;;;24.42;;
70420;SDS011;57848;51.938;15.520;2022-11-15T01:13:23;49.67;;;24.88;;
70420;SDS011;57848;51.938;15.520;2022-11-15T01:16:15;42.37;;;21.73;;
70420;SDS011;57848;51.938;15.520;2022-11-15T01:19:01;42.08;;;21.45;;
70420;SDS011;57848;51.938;15.520;2022-11-15T01:21:45;42.30;;;22.23;;
70420;SDS011;57848;51.938;15.520;2022-11-15T01:24:28;47.47;;;22.88;;
70420;SDS011;57848;51.938;15.520;2022-11-15T01:27:12;44.35;;;22.38;;
70420;SDS011;57848;51.938;15.520;2022-11-15T01:29:56;38.70;;;20.23;;
70420;SDS011;57848;51.938;15.520;2022-11-15T01:32:40;40.28;;;19.77;;
70420;SDS011;57848;51.938;15.520;2022-11-15T01:35:24;39.20;;;19.55;;
70420;SDS011;57848;51.938;15.520;2022-11-15T01:38:08;41.88;;;19.38;;
70420;SDS011;57848;51.938;15.520;2022-11-15T01:40:52;34.15;;;18.45;;
70420;SDS011;57848;51.938;15.520;2022-11-15T01:43:36;36.07;;;18.77;;
70420;SDS011;57848;51.938;15.520;2022-11-15T01:49:05;37.30;;;19.50;;
70420;SDS011;57848;51.938;15.520;2022-11-15T01:51:58;35.03;;;17.73;;
70420;SDS011;57848;51.938;15.520;2022-11-15T01:54:45;32.85;;;18.77;;
70420;SDS011;57848;51.938;15.520;2022-11-15T01:57:31;32.07;;;17.57;;
70420;SDS011;57848;51.938;15.520;2022-11-15T02:00:16;36.63;;;17.77;;
70420;SDS011;57848;51.938;15.520;2022-11-15T02:03:00;34.33;;;17.83;;
70420;SDS011;57848;51.938;15.520;2022-11-15T02:05:46;33.67;;;16.50;;
70420;SDS011;57848;51.938;15.520;2022-11-15T02:08:29;32.92;;;17.35;;
70420;SDS011;57848;51.938;15.520;2022-11-15T02:11:13;34.27;;;17.87;;
70420;SDS011;57848;51.938;15.520;2022-11-15T02:13:57;34.45;;;17.73;;
70420;SDS011;57848;51.938;15.520;2022-11-15T02:22:30;35.50;;;17.50;;
70420;SDS011;57848;51.938;15.520;2022-11-15T02:28:39;32.90;;;17.05;;
70420;SDS011;57848;51.938;15.520;2022-11-15T02:34:46;30.30;;;15.50;;
70420;SDS011;57848;51.938;15.520;2022-11-15T02:43:38;33.17;;;17.45;;
70420;SDS011;57848;51.938;15.520;2022-11-15T02:46:43;34.83;;;18.00;;
70420;SDS011;57848;51.938;15.520;2022-11-15T02:49:51;36.63;;;18.08;;
70420;SDS011;57848;51.938;15.520;2022-11-15T02:52:37;35.35;;;18.75;;
70420;SDS011;57848;51.938;15.520;2022-11-15T02:55:34;36.77;;;18.80;;
70420;SDS011;57848;51.938;15.520;2022-11-15T03:11:17;37.93;;;19.23;;
70420;SDS011;57848;51.938;15.520;2022-11-15T03:17:05;38.92;;;20.00;;
70420;SDS011;57848;51.938;15.520;2022-11-15T03:20:05;38.72;;;20.45;;
70420;SDS011;57848;51.938;15.520;2022-11-15T03:22:51;38.92;;;19.27;;
70420;SDS011;57848;51.938;15.520;2022-11-15T03:25:38;37.13;;;18.97;;
70420;SDS011;57848;51.938;15.520;2022-11-15T03:28:30;40.92;;;20.80;;
70420;SDS011;57848;51.938;15.520;2022-11-15T03:31:21;40.10;;;20.35;;
70420;SDS011;57848;51.938;15.520;2022-11-15T03:34:41;41.10;;;21.27;;
70420;SDS011;57848;51.938;15.520;2022-11-15T03:37:35;38.20;;;20.52;;
70420;SDS011;57848;51.938;15.520;2022-11-15T03:40:27;40.83;;;20.60;;
70420;SDS011;57848;51.938;15.520;2022-11-15T03:46:11;44.33;;;20.48;;
70420;SDS011;57848;51.938;15.520;2022-11-15T03:49:10;42.40;;;20.73;;
70420;SDS011;57848;51.938;15.520;2022-11-15T03:51:59;45.17;;;20.15;;
70420;SDS011;57848;51.938;15.520;2022-11-15T03:54:49;38.40;;;20.17;;
70420;SDS011;57848;51.938;15.520;2022-11-15T03:57:34;41.10;;;19.50;;
70420;SDS011;57848;51.938;15.520;2022-11-15T04:00:18;40.60;;;20.17;;
70420;SDS011;57848;51.938;15.520;2022-11-15T04:03:03;38.85;;;19.42;;
70420;SDS011;57848;51.938;15.520;2022-11-15T04:05:47;44.15;;;20.55;;
70420;SDS011;57848;51.938;15.520;2022-11-15T04:08:31;40.77;;;19.90;;
70420;SDS011;57848;51.938;15.520;2022-11-15T04:11:14;38.13;;;20.30;;
70420;SDS011;57848;51.938;15.520;2022-11-15T04:13:58;42.00;;;20.35;;
70420;SDS011;57848;51.938;15.520;2022-11-15T04:16:42;40.00;;;19.73;;
70420;SDS011;57848;51.938;15.520;2022-11-15T04:19:26;40.63;;;19.83;;
70420;SDS011;57848;51.938;15.520;2022-11-15T04:22:29;35.97;;;18.00;;
70420;SDS011;57848;51.938;15.520;2022-11-15T04:25:33;38.47;;;19.77;;
70420;SDS011;57848;51.938;15.520;2022-11-15T04:28:17;36.28;;;18.63;;
70420;SDS011;57848;51.938;15.520;2022-11-15T04:31:01;39.70;;;20.58;;
70420;SDS011;57848;51.938;15.520;2022-11-15T04:33:45;38.33;;;19.55;;
70420;SDS011;57848;51.938;15.520;2022-11-15T04:36:29;38.53;;;17.40;;
70420;SDS011;57848;51.938;15.520;2022-11-15T04:39:32;40.28;;;18.77;;
70420;SDS011;57848;51.938;15.520;2022-11-15T04:42:16;40.58;;;20.75;;
70420;SDS011;57848;51.938;15.520;2022-11-15T04:45:00;36.80;;;19.33;;
70420;SDS011;57848;51.938;15.520;2022-11-15T04:47:44;38.63;;;18.63;;
70420;SDS011;57848;51.938;15.520;2022-11-15T04:50:29;38.93;;;17.90;;
70420;SDS011;57848;51.938;15.520;2022-11-15T04:53:13;40.33;;;19.23;;
70420;SDS011;57848;51.938;15.520;2022-11-15T04:55:57;39.80;;;19.08;;
70420;SDS011;57848;51.938;15.520;2022-11-15T04:58:41;39.83;;;18.75;;
70420;SDS011;57848;51.938;15.520;2022-11-15T05:01:25;41.17;;;20.30;;
70420;SDS011;57848;51.938;15.520;2022-11-15T05:04:09;40.10;;;18.87;;
70420;SDS011;57848;51.938;15.520;2022-11-15T05:07:03;40.83;;;19.02;;
70420;SDS011;57848;51.938;15.520;2022-11-15T05:09:50;40.15;;;20.15;;
70420;SDS011;57848;51.938;15.520;2022-11-15T05:12:34;39.40;;;19.63;;
70420;SDS011;57848;51.938;15.520;2022-11-15T05:15:18;39.35;;;19.38;;
70420;SDS011;57848;51.938;15.520;2022-11-15T05:18:02;43.97;;;19.57;;
70420;SDS011;57848;51.938;15.520;2022-11-15T05:20:46;39.88;;;19.42;;
70420;SDS011;57848;51.938;15.520;2022-11-15T05:23:30;38.15;;;21.05;;
70420;SDS011;57848;51.938;15.520;2022-11-15T05:26:15;40.35;;;20.38;;
70420;SDS011;57848;51.938;15.520;2022-11-15T05:28:59;41.03;;;18.88;;
70420;SDS011;57848;51.938;15.520;2022-11-15T05:31:43;40.03;;;20.03;;
70420;SDS011;57848;51.938;15.520;2022-11-15T05:34:27;41.15;;;20.13;;
70420;SDS011;57848;51.938;15.520;2022-11-15T05:37:12;40.92;;;20.45;;
70420;SDS011;57848;51.938;15.520;2022-11-15T05:39:57;39.38;;;20.75;;
70420;SDS011;57848;51.938;15.520;2022-11-15T05:42:41;39.95;;;19.67;;
70420;SDS011;57848;51.938;15.520;2022-11-15T05:45:25;42.07;;;19.83;;
70420;SDS011;57848;51.938;15.520;2022-11-15T05:48:09;41.88;;;20.40;;
70420;SDS011;57848;51.938;15.520;2022-11-15T05:50:54;41.85;;;22.35;;
70420;SDS011;57848;51.938;15.520;2022-11-15T05:53:38;43.58;;;20.20;;
70420;SDS011;57848;51.938;15.520;2022-11-15T05:56:23;40.53;;;19.85;;
70420;SDS011;57848;51.938;15.520;2022-11-15T05:59:08;38.97;;;19.53;;
70420;SDS011;57848;51.938;15.520;2022-11-15T06:01:53;41.40;;;18.98;;
70420;SDS011;57848;51.938;15.520;2022-11-15T06:04:37;45.05;;;20.73;;
70420;SDS011;57848;51.938;15.520;2022-11-15T06:07:21;43.22;;;19.88;;
70420;SDS011;57848;51.938;15.520;2022-11-15T06:10:05;40.97;;;21.88;;
70420;SDS011;57848;51.938;15.520;2022-11-15T06:13:00;39.67;;;19.80;;
70420;SDS011;57848;51.938;15.520;2022-11-15T06:15:45;40.70;;;19.80;;
70420;SDS011;57848;51.938;15.520;2022-11-15T06:18:31;43.20;;;20.48;;
70420;SDS011;57848;51.938;15.520;2022-11-15T06:21:17;44.13;;;21.48;;
70420;SDS011;57848;51.938;15.520;2022-11-15T06:24:00;47.47;;;21.65;;
70420;SDS011;57848;51.938;15.520;2022-11-15T06:26:45;41.30;;;22.07;;
70420;SDS011;57848;51.938;15.520;2022-11-15T06:29:28;41.80;;;20.55;;
70420;SDS011;57848;51.938;15.520;2022-11-15T06:32:12;42.13;;;20.38;;
70420;SDS011;57848;51.938;15.520;2022-11-15T06:34:56;40.15;;;19.73;;
70420;SDS011;57848;51.938;15.520;2022-11-15T06:37:40;39.53;;;19.80;;
70420;SDS011;57848;51.938;15.520;2022-11-15T06:40:25;37.60;;;18.97;;
70420;SDS011;57848;51.938;15.520;2022-11-15T06:43:09;40.13;;;19.35;;
70420;SDS011;57848;51.938;15.520;2022-11-15T06:45:53;41.33;;;20.42;;
70420;SDS011;57848;51.938;15.520;2022-11-15T06:48:37;43.25;;;20.52;;
70420;SDS011;57848;51.938;15.520;2022-11-15T06:51:21;44.78;;;20.58;;
70420;SDS011;57848;51.938;15.520;2022-11-15T06:54:05;43.23;;;20.87;;
70420;SDS011;57848;51.938;15.520;2022-11-15T06:56:49;41.47;;;21.52;;
70420;SDS011;57848;51.938;15.520;2022-11-15T06:59:33;41.35;;;20.35;;
70420;SDS011;57848;51.938;15.520;2022-11-15T07:02:17;42.45;;;20.30;;
70420;SDS011;57848;51.938;15.520;2022-11-15T07:05:01;41.72;;;20.42;;
70420;SDS011;57848;51.938;15.520;2022-11-15T07:07:50;39.30;;;20.33;;
70420;SDS011;57848;51.938;15.520;2022-11-15T07:10:35;41.83;;;19.67;;
70420;SDS011;57848;51.938;15.520;2022-11-15T07:13:19;41.60;;;19.63;;
70420;SDS011;57848;51.938;15.520;2022-11-15T07:16:04;39.72;;;20.15;;
70420;SDS011;57848;51.938;15.520;2022-11-15T07:18:49;44.58;;;20.08;;
70420;SDS011;57848;51.938;15.520;2022-11-15T07:21:33;38.77;;;18.57;;
70420;SDS011;57848;51.938;15.520;2022-11-15T07:24:16;41.88;;;19.98;;
70420;SDS011;57848;51.938;15.520;2022-11-15T07:27:00;41.58;;;20.35;;
70420;SDS011;57848;51.938;15.520;2022-11-15T07:29:44;42.03;;;19.50;;
70420;SDS011;57848;51.938;15.520;2022-11-15T07:32:28;36.35;;;18.55;;
70420;SDS011;57848;51.938;15.520;2022-11-15T07:35:12;38.87;;;19.23;;
70420;SDS011;57848;51.938;15.520;2022-11-15T07:38:00;37.05;;;18.38;;
70420;SDS011;57848;51.938;15.520;2022-11-15T07:40:45;39.85;;;19.13;;
70420;SDS011;57848;51.938;15.520;2022-11-15T07:43:30;36.75;;;17.98;;
70420;SDS011;57848;51.938;15.520;2022-11-15T07:46:16;39.00;;;19.17;;
70420;SDS011;57848;51.938;15.520;2022-11-15T07:49:00;34.47;;;18.57;;
70420;SDS011;57848;51.938;15.520;2022-11-15T07:51:44;40.03;;;19.17;;
70420;SDS011;57848;51.938;15.520;2022-11-15T07:54:28;36.40;;;18.58;;
70420;SDS011;57848;51.938;15.520;2022-11-15T07:57:12;37.13;;;18.55;;
70420;SDS011;57848;51.938;15.520;2022-11-15T07:59:56;38.33;;;19.20;;
70420;SDS011;57848;51.938;15.520;2022-11-15T08:02:40;39.03;;;18.63;;
70420;SDS011;57848;51.938;15.520;2022-11-15T08:05:24;41.70;;;18.20;;
70420;SDS011;57848;51.938;15.520;2022-11-15T08:08:09;38.67;;;18.67;;
70420;SDS011;57848;51.938;15.520;2022-11-15T08:10:53;36.92;;;17.95;;
70420;SDS011;57848;51.938;15.520;2022-11-15T08:13:38;37.75;;;18.77;;
70420;SDS011;57848;51.938;15.520;2022-11-15T08:16:22;39.77;;;19.77;;
70420;SDS011;57848;51.938;15.520;2022-11-15T08:19:06;37.60;;;17.83;;
70420;SDS011;57848;51.938;15.520;2022-11-15T08:21:50;38.22;;;18.63;;
70420;SDS011;57848;51.938;15.520;2022-11-15T08:24:34;34.20;;;18.30;;
70420;SDS011;57848;51.938;15.520;2022-11-15T08:27:18;34.25;;;18.65;;
70420;SDS011;57848;51.938;15.520;2022-11-15T08:30:02;34.63;;;17.77;;
70420;SDS011;57848;51.938;15.520;2022-11-15T08:32:47;34.05;;;18.05;;
70420;SDS011;57848;51.938;15.520;2022-11-15T08:35:31;33.58;;;17.58;;
70420;SDS011;57848;51.938;15.520;2022-11-15T08:38:15;37.97;;;17.00;;
70420;SDS011;57848;51.938;15.520;2022-11-15T08:41:00;32.80;;;17.50;;
70420;SDS011;57848;51.938;15.520;2022-11-15T08:43:46;35.30;;;17.57;;
70420;SDS011;57848;51.938;15.520;2022-11-15T08:46:30;38.17;;;18.05;;
70420;SDS011;57848;51.938;15.520;2022-11-15T08:49:14;34.72;;;17.52;;
70420;SDS011;57848;51.938;15.520;2022-11-15T08:51:58;33.00;;;16.88;;
70420;SDS011;57848;51.938;15.520;2022-11-15T08:54:42;35.72;;;18.80;;
70420;SDS011;57848;51.938;15.520;2022-11-15T08:57:28;32.57;;;16.07;;
70420;SDS011;57848;51.938;15.520;2022-11-15T09:00:13;33.78;;;17.10;;
70420;SDS011;57848;51.938;15.520;2022-11-15T09:02:58;32.67;;;18.10;;
70420;SDS011;57848;51.938;15.520;2022-11-15T09:05:42;33.40;;;17.20;;
70420;SDS011;57848;51.938;15.520;2022-11-15T09:08:29;33.13;;;16.98;;
70420;SDS011;57848;51.938;15.520;2022-11-15T09:11:14;32.90;;;16.30;;
70420;SDS011;57848;51.938;15.520;2022-11-15T09:13:59;30.67;;;16.92;;
70420;SDS011;57848;51.938;15.520;2022-11-15T09:16:44;30.73;;;16.45;;
70420;SDS011;57848;51.938;15.520;2022-11-15T09:19:27;32.85;;;17.38;;
70420;SDS011;57848;51.938;15.520;2022-11-15T09:22:11;31.85;;;16.88;;
70420;SDS011;57848;51.938;15.520;2022-11-15T09:24:55;32.37;;;16.17;;
70420;SDS011;57848;51.938;15.520;2022-11-15T09:27:39;30.92;;;15.15;;
70420;SDS011;57848;51.938;15.520;2022-11-15T09:30:24;32.78;;;15.35;;
70420;SDS011;57848;51.938;15.520;2022-11-15T09:33:09;32.92;;;16.35;;
70420;SDS011;57848;51.938;15.520;2022-11-15T09:35:58;29.30;;;15.38;;
70420;SDS011;57848;51.938;15.520;2022-11-15T09:38:44;29.43;;;15.50;;
70420;SDS011;57848;51.938;15.520;2022-11-15T09:44:52;32.63;;;15.40;;
70420;SDS011;57848;51.938;15.520;2022-11-15T09:48:00;24.45;;;14.13;;
70420;SDS011;57848;51.938;15.520;2022-11-15T09:50:49;26.02;;;14.90;;
70420;SDS011;57848;51.938;15.520;2022-11-15T09:53:22;30.97;;;15.77;;
70420;SDS011;57848;51.938;15.520;2022-11-15T09:55:52;25.30;;;14.02;;
70420;SDS011;57848;51.938;15.520;2022-11-15T09:58:48;25.13;;;14.32;;
70420;SDS011;57848;51.938;15.520;2022-11-15T10:01:18;27.25;;;14.38;;
70420;SDS011;57848;51.938;15.520;2022-11-15T10:03:54;25.00;;;14.50;;
70420;SDS011;57848;51.938;15.520;2022-11-15T10:06:23;26.83;;;14.00;;
70420;SDS011;57848;51.938;15.520;2022-11-15T10:11:23;23.88;;;14.85;;
70420;SDS011;57848;51.938;15.520;2022-11-15T10:13:51;25.70;;;13.88;;
70420;SDS011;57848;51.938;15.520;2022-11-15T10:21:43;28.75;;;14.48;;
70420;SDS011;57848;51.938;15.520;2022-11-15T10:24:27;24.88;;;13.57;;
70420;SDS011;57848;51.938;15.520;2022-11-15T10:26:56;23.90;;;12.93;;
70420;SDS011;57848;51.938;15.520;2022-11-15T10:29:22;22.75;;;12.95;;
70420;SDS011;57848;51.938;15.520;2022-11-15T10:31:48;24.23;;;13.13;;
70420;SDS011;57848;51.938;15.520;2022-11-15T10:34:15;24.52;;;13.45;;
70420;SDS011;57848;51.938;15.520;2022-11-15T10:36:47;23.63;;;12.93;;
70420;SDS011;57848;51.938;15.520;2022-11-15T10:39:19;23.85;;;14.05;;
70420;SDS011;57848;51.938;15.520;2022-11-15T10:41:44;24.47;;;14.20;;
70420;SDS011;57848;51.938;15.520;2022-11-15T10:44:20;24.03;;;14.43;;
70420;SDS011;57848;51.938;15.520;2022-11-15T10:46:48;22.55;;;13.73;;
70420;SDS011;57848;51.938;15.520;2022-11-15T10:49:31;22.10;;;13.63;;
70420;SDS011;57848;51.938;15.520;2022-11-15T10:54:45;22.10;;;13.20;;
70420;SDS011;57848;51.938;15.520;2022-11-15T10:57:14;22.90;;;14.18;;
70420;SDS011;57848;51.938;15.520;2022-11-15T10:59:53;21.42;;;13.32;;
70420;SDS011;57848;51.938;15.520;2022-11-15T11:02:35;23.17;;;14.43;;
70420;SDS011;57848;51.938;15.520;2022-11-15T11:05:04;26.27;;;14.63;;
70420;SDS011;57848;51.938;15.520;2022-11-15T11:07:37;25.15;;;14.30;;
70420;SDS011;57848;51.938;15.520;2022-11-15T11:10:20;23.23;;;13.40;;
70420;SDS011;57848;51.938;15.520;2022-11-15T11:12:46;23.25;;;13.70;;
70420;SDS011;57848;51.938;15.520;2022-11-15T11:15:13;23.80;;;14.33;;
70420;SDS011;57848;51.938;15.520;2022-11-15T11:17:50;22.50;;;13.82;;
70420;SDS011;57848;51.938;15.520;2022-11-15T11:28:51;22.03;;;13.53;;
70420;SDS011;57848;51.938;15.520;2022-11-15T11:37:29;22.40;;;14.15;;
70420;SDS011;57848;51.938;15.520;2022-11-15T11:42:55;20.37;;;12.60;;
70420;SDS011;57848;51.938;15.520;2022-11-15T11:45:47;21.10;;;12.07;;
70420;SDS011;57848;51.938;15.520;2022-11-15T11:48:53;19.60;;;12.02;;
70420;SDS011;57848;51.938;15.520;2022-11-15T11:51:43;21.30;;;11.85;;
70420;SDS011;57848;51.938;15.520;2022-11-15T11:54:14;25.77;;;13.18;;
70420;SDS011;57848;51.938;15.520;2022-11-15T11:57:02;19.57;;;12.33;;
70420;SDS011;57848;51.938;15.520;2022-11-15T12:02:19;23.40;;;12.48;;
70420;SDS011;57848;51.938;15.520;2022-11-15T12:04:51;23.75;;;11.77;;
70420;SDS011;57848;51.938;15.520;2022-11-15T12:07:24;30.00;;;15.73;;
70420;SDS011;57848;51.938;15.520;2022-11-15T12:09:58;30.77;;;16.50;;
70420;SDS011;57848;51.938;15.520;2022-11-15T12:13:15;31.38;;;17.50;;
70420;SDS011;57848;51.938;15.520;2022-11-15T12:15:40;29.88;;;17.42;;
70420;SDS011;57848;51.938;15.520;2022-11-15T12:18:12;31.50;;;18.35;;
70420;SDS011;57848;51.938;15.520;2022-11-15T12:20:40;31.67;;;17.60;;
70420;SDS011;57848;51.938;15.520;2022-11-15T12:23:19;28.93;;;15.57;;
70420;SDS011;57848;51.938;15.520;2022-11-15T12:25:53;31.63;;;17.65;;
70420;SDS011;57848;51.938;15.520;2022-11-15T12:33:43;30.88;;;18.55;;
70420;SDS011;57848;51.938;15.520;2022-11-15T12:36:11;32.10;;;17.77;;
70420;SDS011;57848;51.938;15.520;2022-11-15T12:41:25;31.58;;;17.90;;
70420;SDS011;57848;51.938;15.520;2022-11-15T12:43:53;33.47;;;18.10;;
70420;SDS011;57848;51.938;15.520;2022-11-15T12:46:25;29.73;;;17.45;;
70420;SDS011;57848;51.938;15.520;2022-11-15T12:49:09;33.23;;;17.43;;
70420;SDS011;57848;51.938;15.520;2022-11-15T13:02:42;31.07;;;17.43;;
70420;SDS011;57848;51.938;15.520;2022-11-15T13:17:39;31.92;;;17.30;;
70420;SDS011;57848;51.938;15.520;2022-11-15T13:30:34;28.85;;;15.95;;
70420;SDS011;57848;51.938;15.520;2022-11-15T13:33:05;30.00;;;15.93;;
70420;SDS011;57848;51.938;15.520;2022-11-15T13:35:35;29.40;;;15.50;;
70420;SDS011;57848;51.938;15.520;2022-11-15T13:38:06;33.83;;;16.85;;
70420;SDS011;57848;51.938;15.520;2022-11-15T13:40:42;30.40;;;17.05;;
70420;SDS011;57848;51.938;15.520;2022-11-15T13:48:59;29.65;;;16.58;;
70420;SDS011;57848;51.938;15.520;2022-11-15T13:56:49;31.77;;;18.43;;
70420;SDS011;57848;51.938;15.520;2022-11-15T13:59:26;27.85;;;16.48;;
70420;SDS011;57848;51.938;15.520;2022-11-15T14:01:54;29.02;;;15.68;;
70420;SDS011;57848;51.938;15.520;2022-11-15T14:04:22;28.10;;;16.52;;
70420;SDS011;57848;51.938;15.520;2022-11-15T14:06:51;28.15;;;15.27;;
70420;SDS011;57848;51.938;15.520;2022-11-15T14:11:55;22.60;;;12.35;;
70420;SDS011;57848;51.938;15.520;2022-11-15T14:14:25;25.42;;;14.45;;
70420;SDS011;57848;51.938;15.520;2022-11-15T14:16:58;25.95;;;14.25;;
70420;SDS011;57848;51.938;15.520;2022-11-15T14:25:13;28.38;;;15.38;;
70420;SDS011;57848;51.938;15.520;2022-11-15T14:30:55;36.63;;;16.98;;
70420;SDS011;57848;51.938;15.520;2022-11-15T14:33:29;30.50;;;16.73;;
70420;SDS011;57848;51.938;15.520;2022-11-15T14:35:57;31.67;;;17.05;;
70420;SDS011;57848;51.938;15.520;2022-11-15T14:38:35;30.55;;;17.05;;
70420;SDS011;57848;51.938;15.520;2022-11-15T14:41:00;30.80;;;17.20;;
70420;SDS011;57848;51.938;15.520;2022-11-15T14:43:26;28.50;;;17.00;;
70420;SDS011;57848;51.938;15.520;2022-11-15T14:45:51;33.47;;;17.73;;
70420;SDS011;57848;51.938;15.520;2022-11-15T14:48:17;33.63;;;17.00;;
70420;SDS011;57848;51.938;15.520;2022-11-15T14:50:42;34.60;;;17.33;;
70420;SDS011;57848;51.938;15.520;2022-11-15T14:53:12;33.97;;;19.48;;
70420;SDS011;57848;51.938;15.520;2022-11-15T14:55:40;35.13;;;19.77;;
70420;SDS011;57848;51.938;15.520;2022-11-15T14:58:06;37.10;;;19.38;;
70420;SDS011;57848;51.938;15.520;2022-11-15T15:00:35;35.63;;;18.90;;
70420;SDS011;57848;51.938;15.520;2022-11-15T15:03:02;33.22;;;18.77;;
70420;SDS011;57848;51.938;15.520;2022-11-15T15:08:00;37.30;;;19.23;;
70420;SDS011;57848;51.938;15.520;2022-11-15T15:10:27;35.67;;;19.45;;
70420;SDS011;57848;51.938;15.520;2022-11-15T15:12:58;34.50;;;18.63;;
70420;SDS011;57848;51.938;15.520;2022-11-15T15:15:25;38.83;;;19.23;;
70420;SDS011;57848;51.938;15.520;2022-11-15T15:18:02;37.10;;;19.63;;
70420;SDS011;57848;51.938;15.520;2022-11-15T15:20:29;36.70;;;20.60;;
70420;SDS011;57848;51.938;15.520;2022-11-15T15:22:55;42.10;;;21.60;;
70420;SDS011;57848;51.938;15.520;2022-11-15T15:25:22;35.63;;;20.60;;
70420;SDS011;57848;51.938;15.520;2022-11-15T15:27:52;38.25;;;20.27;;
70420;SDS011;57848;51.938;15.520;2022-11-15T15:30:17;36.22;;;19.25;;
70420;SDS011;57848;51.938;15.520;2022-11-15T15:32:43;40.00;;;20.03;;
70420;SDS011;57848;51.938;15.520;2022-11-15T15:35:11;41.63;;;22.38;;
70420;SDS011;57848;51.938;15.520;2022-11-15T15:37:41;47.50;;;25.15;;
70420;SDS011;57848;51.938;15.520;2022-11-15T15:40:20;43.20;;;22.57;;
70420;SDS011;57848;51.938;15.520;2022-11-15T15:42:47;38.03;;;20.20;;
70420;SDS011;57848;51.938;15.520;2022-11-15T15:45:13;40.10;;;20.80;;
70420;SDS011;57848;51.938;15.520;2022-11-15T15:47:40;37.05;;;18.85;;
70420;SDS011;57848;51.938;15.520;2022-11-15T15:52:47;34.97;;;17.50;;
70420;SDS011;57848;51.938;15.520;2022-11-15T15:55:12;35.45;;;18.58;;
70420;SDS011;57848;51.938;15.520;2022-11-15T15:57:38;33.63;;;18.30;;
70420;SDS011;57848;51.938;15.520;2022-11-15T16:00:03;35.63;;;18.47;;
70420;SDS011;57848;51.938;15.520;2022-11-15T16:02:37;38.15;;;18.20;;
70420;SDS011;57848;51.938;15.520;2022-11-15T16:05:03;40.70;;;20.25;;
70420;SDS011;57848;51.938;15.520;2022-11-15T16:07:28;33.53;;;18.80;;
70420;SDS011;57848;51.938;15.520;2022-11-15T16:09:54;38.92;;;19.50;;
70420;SDS011;57848;51.938;15.520;2022-11-15T16:12:34;38.20;;;19.73;;
70420;SDS011;57848;51.938;15.520;2022-11-15T16:15:00;38.95;;;20.05;;
70420;SDS011;57848;51.938;15.520;2022-11-15T16:17:28;38.10;;;20.35;;
70420;SDS011;57848;51.938;15.520;2022-11-15T16:19:57;38.83;;;18.52;;
70420;SDS011;57848;51.938;15.520;2022-11-15T16:22:22;37.13;;;19.13;;
70420;SDS011;57848;51.938;15.520;2022-11-15T16:24:48;36.70;;;19.30;;
70420;SDS011;57848;51.938;15.520;2022-11-15T16:27:14;33.33;;;18.60;;
70420;SDS011;57848;51.938;15.520;2022-11-15T16:29:41;39.38;;;20.58;;
70420;SDS011;57848;51.938;15.520;2022-11-15T16:32:07;38.30;;;20.03;;
70420;SDS011;57848;51.938;15.520;2022-11-15T16:34:32;47.08;;;23.02;;
70420;SDS011;57848;51.938;15.520;2022-11-15T16:36:58;40.97;;;22.17;;
70420;SDS011;57848;51.938;15.520;2022-11-15T16:39:23;48.03;;;24.33;;
70420;SDS011;57848;51.938;15.520;2022-11-15T16:41:49;47.00;;;25.17;;
70420;SDS011;57848;51.938;15.520;2022-11-15T16:44:14;43.23;;;21.27;;
70420;SDS011;57848;51.938;15.520;2022-11-15T16:46:42;42.72;;;20.88;;
70420;SDS011;57848;51.938;15.520;2022-11-15T16:49:12;42.97;;;24.05;;
70420;SDS011;57848;51.938;15.520;2022-11-15T16:51:38;45.27;;;23.27;;
70420;SDS011;57848;51.938;15.520;2022-11-15T16:54:05;44.95;;;26.63;;
70420;SDS011;57848;51.938;15.520;2022-11-15T16:56:31;43.63;;;25.10;;
70420;SDS011;57848;51.938;15.520;2022-11-15T16:58:57;45.47;;;24.87;;
70420;SDS011;57848;51.938;15.520;2022-11-15T17:01:25;52.40;;;27.15;;
70420;SDS011;57848;51.938;15.520;2022-11-15T17:03:52;54.13;;;29.13;;
70420;SDS011;57848;51.938;15.520;2022-11-15T17:06:18;49.28;;;27.52;;
70420;SDS011;57848;51.938;15.520;2022-11-15T17:08:44;50.47;;;27.63;;
70420;SDS011;57848;51.938;15.520;2022-11-15T17:11:12;47.22;;;25.08;;
70420;SDS011;57848;51.938;15.520;2022-11-15T17:13:39;48.22;;;26.42;;
70420;SDS011;57848;51.938;15.520;2022-11-15T17:16:08;42.73;;;23.53;;
70420;SDS011;57848;51.938;15.520;2022-11-15T17:18:36;46.08;;;25.73;;
70420;SDS011;57848;51.938;15.520;2022-11-15T17:21:02;48.17;;;24.97;;
70420;SDS011;57848;51.938;15.520;2022-11-15T17:23:29;46.55;;;25.63;;
70420;SDS011;57848;51.938;15.520;2022-11-15T17:25:58;39.90;;;22.07;;
70420;SDS011;57848;51.938;15.520;2022-11-15T17:28:29;53.83;;;26.20;;
70420;SDS011;57848;51.938;15.520;2022-11-15T17:30:55;51.88;;;26.02;;
70420;SDS011;57848;51.938;15.520;2022-11-15T17:33:21;57.70;;;29.73;;
70420;SDS011;57848;51.938;15.520;2022-11-15T17:35:46;61.50;;;31.10;;
70420;SDS011;57848;51.938;15.520;2022-11-15T17:38:19;66.43;;;33.35;;
70420;SDS011;57848;51.938;15.520;2022-11-15T17:40:45;62.50;;;30.83;;
70420;SDS011;57848;51.938;15.520;2022-11-15T17:43:10;63.87;;;32.53;;
70420;SDS011;57848;51.938;15.520;2022-11-15T17:45:38;60.33;;;30.08;;